Tuesday, February 09, 2016
05:43 UTC
  |  Log In   |  Register Free
Airport Search:

Tyler Pounds Regional Airport
(KTYR)

FAA data valid effective Dec 10 2015 - Feb 4 2016 (unless otherwise noted).

 
 
 
 
 
 
 
 
 
 
 
 
 
 
Current Aviation Weather for KTYR

Weather Summary


The most recent METAR observation for TYR was updated at: 12:58 UTC
METAR for KTYR is not available. Closest METAR is for KJDD
KTYR  (most recent observation was updatred at 90:45 UTC)
090453Z AUTO 33004KT CLR 05/M11 A3023 RMK AO2 SLP237 T00501106 $

KJDD  (23.8 nm SE)   (most recent observation was updated at 90:51 UTC)
090515Z AUTO 28009KT 10SM CLR 07/M09 A3025 RMK AO2

KJSO  (30.6 nm NW)   (most recent observation was updated at 90:51 UTC)
090515Z AUTO 31011G16KT 10SM CLR 07/M12 A3025 RMK AO2 T00731125

TAF for KTYR is not available.
KTYR
090533Z 0906/1006 32007KT P6SM SKC FM091500 32014G24KT P6SM SKC FM100000 32008KT P6SM SKC

GlobalAir.com is loading additional information.
 Current Weather at TYR
44.0 F° (6.7 C°)

Northwest winds at 8.1 mph
Pressure:
30.23 in
Humidity:
27%
Wind:
Northwest at 8.1 mph
Dew Point:
12.0 F° (-11.1 C°)
Visibility:
mi
TYR NOAA Radar




Find All Airport Services Find A Hotel Find A Rental Car Find A Golf Course Find A Restaurant $100 Hamburger



Airport Weather Forecast for KTYR

Translated METAR for KTYR (0453 UTC)
METAR:
KTYR 090453Z AUTO 33004KT CLR 05/M11 A3023 RMK AO2 SLP237 T00501106 $
Conditions at:
KTYR (Tyler Pounds Rgnl, TX) observed 0453 UTC 09 February 2016
Temperature:
5°C (41°F)
Dewpoint:
not reported - refer to area weather report
Pressure:
30.23 inches Hg (1023.7 mb)
pressure at sea level is 237 in Hg
Winds:
from the NNW (330 degrees) at 4.6 mph (4 knots: 2.1 m/s)
Visibility:
not reported - refer to area weather report
Ceiling:
at least 12,000 feet AGL
Clouds:
not reported - refer to area weather report
Remarks:
site is un-manned
SOME DATA ABOVE MAY BE INACCURATE!!!
"$" is an indication the sensor requires maintenance
site is automated and HAS a precipitation sensor

Translated TAF for KTYR (Tyler Pounds Rgnl, TX) (0533 UTC)
TAF text:
KTYR 090533Z 0906/1006 32007KT P6SM SKC
Forecast period:
Tuesday Feb 09 2016 06:00 UTC - Wednesday Feb 10 2016 06:00 UTC
Forecast type:
FROM: standard forecast or significant change
Winds:
from the NW (320 degrees) at 8.1 mph (7 knots: 3.6 m/s)
Visibility:
6 or more mile(s) (9.7+ km)
Ceiling:
at least 12,000 feet AGL
Clouds:
Clear Skies
Weather:
no significant weather observed at this time
TAF text:
FM091500 32014G24KT P6SM SKC
Forecast period:
Tuesday Feb 09 2016 15:00 UTC - Wednesday Feb 10 2016 00:00 UTC
Forecast type:
FROM: standard forecast or significant change
Winds:
from the NW (320 degrees) at 16.1 mph (14 knots: 7.2 m/s)
gusting to 27.6 mph (24 knots: 12.3 m/s)
Visibility:
6 or more mile(s) (9.7+ km)
Ceiling:
at least 12,000 feet AGL
Clouds:
Clear Skies
Weather:
no significant weather observed at this time
TAF text:
FM100000 32008KT P6SM SKC
Forecast period:
Wednesday Feb 10 2016 00:00 UTC - Wednesday Feb 10 2016 06:00 UTC
Forecast type:
FROM: standard forecast or significant change
Winds:
from the NW (320 degrees) at 9.2 mph (8 knots: 4.1 m/s)
Visibility:
6 or more mile(s) (9.7+ km)
Ceiling:
at least 12,000 feet AGL
Clouds:
Clear Skies
Weather:
no significant weather observed at this time
FBO's on the Field
FBO Company Facility Photos Services Transportation Aviation Fuel Prices: Prices include tax
Catering Weather Repair Courtesy Rental Type 100LL JetA JetA+ MOGAS 8087
 
Jet Center of Tyler

Currently rated 5 by 2 people
FS:Phillips 66
Last Updated: Feb-03
Login to update fuel prices
SS:
Contact Jet Center of TylerMore FBO Information
 
Johnson Aviation, Inc

Currently rated 5 by 3 people
FS:Avfuel
Last Updated: Jan-28
Login to update fuel prices
SS:
Contact Johnson Aviation, IncMore FBO Information
 
Add another FBO Facility Photos Catering Weather Repair Courtesy Rental Type 100LL JetA JetA+ MOGAS 8087
Services Transportation Aviation Fuel Prices: Prices include tax


model-print
model-print
model-print
model-print